<?xml version="1.0" encoding="UTF-8" standalone="no" ?>
<gpx xmlns="http://www.topografix.com/GPX/1/1" xmlns:xsi="http://www.w3.org/2001/XMLSchema-instance" xsi:schemaLocation="http://www.topografix.com/GPX/1/1 http://www.topografix.com/GPX/1/1/gpx.xsd" version="1.1" creator="VisuGPX - https://www.visugpx.com">
  <metadata>
    <name>dole chaussin</name>
  </metadata>
  <trk>
    <name><![CDATA[ACTIVE LOG 004]]></name>
    <trkseg>
      <trkpt lat="47.01243" lon="5.3876">
        <ele>186.152466</ele>
        <time>2021-02-25T13:00:18Z</time>
      </trkpt>
      <trkpt lat="47.01243" lon="5.3876">
        <ele>186.152466</ele>
        <time>2021-02-25T13:00:19Z</time>
      </trkpt>
      <trkpt lat="47.01243" lon="5.3876">
        <ele>188.075073</ele>
        <time>2021-02-25T13:01:28Z</time>
      </trkpt>
      <trkpt lat="47.01288" lon="5.39">
        <ele>187.11377</ele>
        <time>2021-02-25T13:01:42Z</time>
      </trkpt>
      <trkpt lat="47.01313" lon="5.3902">
        <ele>184.710571</ele>
        <time>2021-02-25T13:01:47Z</time>
      </trkpt>
      <trkpt lat="47.01366" lon="5.39059">
        <ele>181.345825</ele>
        <time>2021-02-25T13:01:57Z</time>
      </trkpt>
      <trkpt lat="47.01552" lon="5.39202">
        <ele>180.865234</ele>
        <time>2021-02-25T13:02:29Z</time>
      </trkpt>
      <trkpt lat="47.01688" lon="5.39332">
        <ele>180.865234</ele>
        <time>2021-02-25T13:02:51Z</time>
      </trkpt>
      <trkpt lat="47.01906" lon="5.39522">
        <ele>181.826416</ele>
        <time>2021-02-25T13:03:24Z</time>
      </trkpt>
      <trkpt lat="47.02065" lon="5.39682">
        <ele>181.826416</ele>
        <time>2021-02-25T13:03:49Z</time>
      </trkpt>
      <trkpt lat="47.02227" lon="5.39862">
        <ele>183.268433</ele>
        <time>2021-02-25T13:04:15Z</time>
      </trkpt>
      <trkpt lat="47.02458" lon="5.40083">
        <ele>183.749023</ele>
        <time>2021-02-25T13:04:50Z</time>
      </trkpt>
      <trkpt lat="47.02667" lon="5.4027">
        <ele>182.787842</ele>
        <time>2021-02-25T13:05:20Z</time>
      </trkpt>
      <trkpt lat="47.0284" lon="5.40385">
        <ele>183.268433</ele>
        <time>2021-02-25T13:05:44Z</time>
      </trkpt>
      <trkpt lat="47.02995" lon="5.40492">
        <ele>183.268433</ele>
        <time>2021-02-25T13:06:06Z</time>
      </trkpt>
      <trkpt lat="47.03074" lon="5.40555">
        <ele>183.268433</ele>
        <time>2021-02-25T13:06:18Z</time>
      </trkpt>
      <trkpt lat="47.03115" lon="5.40645">
        <ele>184.229858</ele>
        <time>2021-02-25T13:06:28Z</time>
      </trkpt>
      <trkpt lat="47.03104" lon="5.40709">
        <ele>185.671753</ele>
        <time>2021-02-25T13:06:35Z</time>
      </trkpt>
      <trkpt lat="47.03093" lon="5.40718">
        <ele>185.191162</ele>
        <time>2021-02-25T13:06:37Z</time>
      </trkpt>
      <trkpt lat="47.03062" lon="5.4074">
        <ele>185.671753</ele>
        <time>2021-02-25T13:06:43Z</time>
      </trkpt>
      <trkpt lat="47.03044" lon="5.40786">
        <ele>186.633179</ele>
        <time>2021-02-25T13:06:51Z</time>
      </trkpt>
      <trkpt lat="47.03048" lon="5.40795">
        <ele>187.11377</ele>
        <time>2021-02-25T13:06:53Z</time>
      </trkpt>
      <trkpt lat="47.03051" lon="5.40801">
        <ele>188.075073</ele>
        <time>2021-02-25T13:06:55Z</time>
      </trkpt>
      <trkpt lat="47.03052" lon="5.40805">
        <ele>188.075073</ele>
        <time>2021-02-25T13:07:03Z</time>
      </trkpt>
      <trkpt lat="47.03065" lon="5.408">
        <ele>189.516968</ele>
        <time>2021-02-25T13:07:12Z</time>
      </trkpt>
      <trkpt lat="47.0309" lon="5.40763">
        <ele>189.997681</ele>
        <time>2021-02-25T13:07:30Z</time>
      </trkpt>
      <trkpt lat="47.03142" lon="5.40731">
        <ele>191.920288</ele>
        <time>2021-02-25T13:07:46Z</time>
      </trkpt>
      <trkpt lat="47.03217" lon="5.4072">
        <ele>190.478394</ele>
        <time>2021-02-25T13:08:02Z</time>
      </trkpt>
      <trkpt lat="47.0324" lon="5.40738">
        <ele>189.036377</ele>
        <time>2021-02-25T13:08:06Z</time>
      </trkpt>
      <trkpt lat="47.03246" lon="5.40745">
        <ele>188.555786</ele>
        <time>2021-02-25T13:08:07Z</time>
      </trkpt>
      <trkpt lat="47.03269" lon="5.40777">
        <ele>187.11377</ele>
        <time>2021-02-25T13:08:11Z</time>
      </trkpt>
      <trkpt lat="47.03286" lon="5.40805">
        <ele>185.671753</ele>
        <time>2021-02-25T13:08:14Z</time>
      </trkpt>
      <trkpt lat="47.03345" lon="5.40821">
        <ele>184.229858</ele>
        <time>2021-02-25T13:08:21Z</time>
      </trkpt>
      <trkpt lat="47.03405" lon="5.40852">
        <ele>184.229858</ele>
        <time>2021-02-25T13:08:29Z</time>
      </trkpt>
      <trkpt lat="47.03487" lon="5.40977">
        <ele>184.229858</ele>
        <time>2021-02-25T13:08:44Z</time>
      </trkpt>
      <trkpt lat="47.03517" lon="5.41009">
        <ele>184.710571</ele>
        <time>2021-02-25T13:08:49Z</time>
      </trkpt>
      <trkpt lat="47.03546" lon="5.41025">
        <ele>184.229858</ele>
        <time>2021-02-25T13:08:53Z</time>
      </trkpt>
      <trkpt lat="47.03582" lon="5.41088">
        <ele>184.710571</ele>
        <time>2021-02-25T13:09:01Z</time>
      </trkpt>
      <trkpt lat="47.03647" lon="5.41201">
        <ele>183.749023</ele>
        <time>2021-02-25T13:09:15Z</time>
      </trkpt>
      <trkpt lat="47.03735" lon="5.41314">
        <ele>184.229858</ele>
        <time>2021-02-25T13:09:32Z</time>
      </trkpt>
      <trkpt lat="47.03767" lon="5.41332">
        <ele>184.710571</ele>
        <time>2021-02-25T13:09:37Z</time>
      </trkpt>
      <trkpt lat="47.03815" lon="5.41338">
        <ele>184.710571</ele>
        <time>2021-02-25T13:09:44Z</time>
      </trkpt>
      <trkpt lat="47.03849" lon="5.41322">
        <ele>185.191162</ele>
        <time>2021-02-25T13:09:50Z</time>
      </trkpt>
      <trkpt lat="47.03858" lon="5.41316">
        <ele>184.710571</ele>
        <time>2021-02-25T13:09:52Z</time>
      </trkpt>
      <trkpt lat="47.03872" lon="5.4132">
        <ele>185.191162</ele>
        <time>2021-02-25T13:09:56Z</time>
      </trkpt>
      <trkpt lat="47.03886" lon="5.4134">
        <ele>185.671753</ele>
        <time>2021-02-25T13:10:00Z</time>
      </trkpt>
      <trkpt lat="47.03909" lon="5.41354">
        <ele>184.710571</ele>
        <time>2021-02-25T13:10:05Z</time>
      </trkpt>
      <trkpt lat="47.03926" lon="5.41356">
        <ele>184.710571</ele>
        <time>2021-02-25T13:10:08Z</time>
      </trkpt>
      <trkpt lat="47.04021" lon="5.41437">
        <ele>184.710571</ele>
        <time>2021-02-25T13:10:25Z</time>
      </trkpt>
      <trkpt lat="47.04117" lon="5.41458">
        <ele>185.191162</ele>
        <time>2021-02-25T13:10:40Z</time>
      </trkpt>
      <trkpt lat="47.04233" lon="5.41464">
        <ele>185.671753</ele>
        <time>2021-02-25T13:10:58Z</time>
      </trkpt>
      <trkpt lat="47.04256" lon="5.41469">
        <ele>184.710571</ele>
        <time>2021-02-25T13:11:02Z</time>
      </trkpt>
      <trkpt lat="47.04323" lon="5.4148">
        <ele>185.191162</ele>
        <time>2021-02-25T13:11:13Z</time>
      </trkpt>
      <trkpt lat="47.04418" lon="5.41548">
        <ele>185.191162</ele>
        <time>2021-02-25T13:11:29Z</time>
      </trkpt>
      <trkpt lat="47.04489" lon="5.41593">
        <ele>185.191162</ele>
        <time>2021-02-25T13:11:41Z</time>
      </trkpt>
      <trkpt lat="47.04573" lon="5.41677">
        <ele>185.191162</ele>
        <time>2021-02-25T13:11:56Z</time>
      </trkpt>
      <trkpt lat="47.04586" lon="5.41699">
        <ele>185.191162</ele>
        <time>2021-02-25T13:11:59Z</time>
      </trkpt>
      <trkpt lat="47.04639" lon="5.41796">
        <ele>185.671753</ele>
        <time>2021-02-25T13:12:12Z</time>
      </trkpt>
      <trkpt lat="47.04703" lon="5.41859">
        <ele>186.152466</ele>
        <time>2021-02-25T13:12:25Z</time>
      </trkpt>
      <trkpt lat="47.0471" lon="5.41866">
        <ele>186.152466</ele>
        <time>2021-02-25T13:12:28Z</time>
      </trkpt>
      <trkpt lat="47.04722" lon="5.41846">
        <ele>185.671753</ele>
        <time>2021-02-25T13:12:34Z</time>
      </trkpt>
      <trkpt lat="47.04755" lon="5.4172">
        <ele>185.671753</ele>
        <time>2021-02-25T13:12:51Z</time>
      </trkpt>
      <trkpt lat="47.04806" lon="5.4157">
        <ele>186.152466</ele>
        <time>2021-02-25T13:13:10Z</time>
      </trkpt>
      <trkpt lat="47.04851" lon="5.41429">
        <ele>185.671753</ele>
        <time>2021-02-25T13:13:28Z</time>
      </trkpt>
      <trkpt lat="47.04866" lon="5.41411">
        <ele>186.152466</ele>
        <time>2021-02-25T13:13:33Z</time>
      </trkpt>
      <trkpt lat="47.04872" lon="5.41403">
        <ele>186.152466</ele>
        <time>2021-02-25T13:13:35Z</time>
      </trkpt>
      <trkpt lat="47.04889" lon="5.41397">
        <ele>185.671753</ele>
        <time>2021-02-25T13:13:39Z</time>
      </trkpt>
      <trkpt lat="47.04931" lon="5.41398">
        <ele>185.671753</ele>
        <time>2021-02-25T13:13:48Z</time>
      </trkpt>
      <trkpt lat="47.04952" lon="5.41402">
        <ele>185.671753</ele>
        <time>2021-02-25T13:13:52Z</time>
      </trkpt>
      <trkpt lat="47.04963" lon="5.41402">
        <ele>186.152466</ele>
        <time>2021-02-25T13:13:54Z</time>
      </trkpt>
      <trkpt lat="47.0499" lon="5.41397">
        <ele>186.152466</ele>
        <time>2021-02-25T13:13:59Z</time>
      </trkpt>
      <trkpt lat="47.05004" lon="5.414">
        <ele>186.152466</ele>
        <time>2021-02-25T13:14:02Z</time>
      </trkpt>
      <trkpt lat="47.05021" lon="5.41398">
        <ele>186.633179</ele>
        <time>2021-02-25T13:14:06Z</time>
      </trkpt>
      <trkpt lat="47.05087" lon="5.41398">
        <ele>186.633179</ele>
        <time>2021-02-25T13:14:18Z</time>
      </trkpt>
      <trkpt lat="47.0511" lon="5.41398">
        <ele>186.633179</ele>
        <time>2021-02-25T13:14:25Z</time>
      </trkpt>
      <trkpt lat="47.05198" lon="5.41398">
        <ele>187.11377</ele>
        <time>2021-02-25T13:14:42Z</time>
      </trkpt>
      <trkpt lat="47.05219" lon="5.41401">
        <ele>186.152466</ele>
        <time>2021-02-25T13:14:46Z</time>
      </trkpt>
      <trkpt lat="47.05237" lon="5.41414">
        <ele>187.11377</ele>
        <time>2021-02-25T13:14:50Z</time>
      </trkpt>
      <trkpt lat="47.05256" lon="5.41411">
        <ele>186.633179</ele>
        <time>2021-02-25T13:14:54Z</time>
      </trkpt>
      <trkpt lat="47.05271" lon="5.414">
        <ele>186.152466</ele>
        <time>2021-02-25T13:14:57Z</time>
      </trkpt>
      <trkpt lat="47.05369" lon="5.41396">
        <ele>187.11377</ele>
        <time>2021-02-25T13:15:13Z</time>
      </trkpt>
      <trkpt lat="47.05554" lon="5.41396">
        <ele>186.152466</ele>
        <time>2021-02-25T13:15:41Z</time>
      </trkpt>
      <trkpt lat="47.05612" lon="5.41396">
        <ele>186.633179</ele>
        <time>2021-02-25T13:15:50Z</time>
      </trkpt>
      <trkpt lat="47.05648" lon="5.41411">
        <ele>187.11377</ele>
        <time>2021-02-25T13:15:56Z</time>
      </trkpt>
      <trkpt lat="47.05672" lon="5.41411">
        <ele>186.633179</ele>
        <time>2021-02-25T13:16:00Z</time>
      </trkpt>
      <trkpt lat="47.05698" lon="5.41398">
        <ele>187.11377</ele>
        <time>2021-02-25T13:16:05Z</time>
      </trkpt>
      <trkpt lat="47.05749" lon="5.41393">
        <ele>187.11377</ele>
        <time>2021-02-25T13:16:14Z</time>
      </trkpt>
      <trkpt lat="47.05784" lon="5.41365">
        <ele>186.152466</ele>
        <time>2021-02-25T13:16:21Z</time>
      </trkpt>
      <trkpt lat="47.05825" lon="5.41295">
        <ele>187.11377</ele>
        <time>2021-02-25T13:16:32Z</time>
      </trkpt>
      <trkpt lat="47.05862" lon="5.41273">
        <ele>187.59436</ele>
        <time>2021-02-25T13:16:39Z</time>
      </trkpt>
      <trkpt lat="47.05874" lon="5.41272">
        <ele>187.59436</ele>
        <time>2021-02-25T13:16:41Z</time>
      </trkpt>
      <trkpt lat="47.05891" lon="5.41276">
        <ele>189.036377</ele>
        <time>2021-02-25T13:16:45Z</time>
      </trkpt>
      <trkpt lat="47.05908" lon="5.41278">
        <ele>189.997681</ele>
        <time>2021-02-25T13:16:58Z</time>
      </trkpt>
      <trkpt lat="47.05928" lon="5.41273">
        <ele>191.920288</ele>
        <time>2021-02-25T13:23:26Z</time>
      </trkpt>
      <trkpt lat="47.05931" lon="5.41273">
        <ele>192.401123</ele>
        <time>2021-02-25T13:23:27Z</time>
      </trkpt>
      <trkpt lat="47.05932" lon="5.41297">
        <ele>191.920288</ele>
        <time>2021-02-25T13:23:32Z</time>
      </trkpt>
      <trkpt lat="47.05931" lon="5.4133">
        <ele>191.439575</ele>
        <time>2021-02-25T13:23:36Z</time>
      </trkpt>
      <trkpt lat="47.0594" lon="5.41509">
        <ele>190.478394</ele>
        <time>2021-02-25T13:23:56Z</time>
      </trkpt>
      <trkpt lat="47.05941" lon="5.41727">
        <ele>190.958984</ele>
        <time>2021-02-25T13:24:19Z</time>
      </trkpt>
      <trkpt lat="47.0594" lon="5.4194">
        <ele>190.958984</ele>
        <time>2021-02-25T13:24:41Z</time>
      </trkpt>
      <trkpt lat="47.05941" lon="5.42177">
        <ele>190.958984</ele>
        <time>2021-02-25T13:25:06Z</time>
      </trkpt>
      <trkpt lat="47.05941" lon="5.42236">
        <ele>190.958984</ele>
        <time>2021-02-25T13:25:13Z</time>
      </trkpt>
      <trkpt lat="47.05941" lon="5.42343">
        <ele>190.958984</ele>
        <time>2021-02-25T13:25:28Z</time>
      </trkpt>
      <trkpt lat="47.05942" lon="5.42368">
        <ele>190.958984</ele>
        <time>2021-02-25T13:25:31Z</time>
      </trkpt>
      <trkpt lat="47.05941" lon="5.42437">
        <ele>190.958984</ele>
        <time>2021-02-25T13:25:39Z</time>
      </trkpt>
      <trkpt lat="47.05938" lon="5.42657">
        <ele>193.362305</ele>
        <time>2021-02-25T13:26:04Z</time>
      </trkpt>
      <trkpt lat="47.05938" lon="5.42672">
        <ele>194.804321</ele>
        <time>2021-02-25T13:26:07Z</time>
      </trkpt>
      <trkpt lat="47.05938" lon="5.42675">
        <ele>194.32373</ele>
        <time>2021-02-25T13:26:08Z</time>
      </trkpt>
      <trkpt lat="47.0595" lon="5.4268">
        <ele>195.284912</ele>
        <time>2021-02-25T13:26:13Z</time>
      </trkpt>
      <trkpt lat="47.05962" lon="5.42679">
        <ele>195.284912</ele>
        <time>2021-02-25T13:26:17Z</time>
      </trkpt>
      <trkpt lat="47.05964" lon="5.4272">
        <ele>192.401123</ele>
        <time>2021-02-25T13:26:23Z</time>
      </trkpt>
      <trkpt lat="47.05962" lon="5.42914">
        <ele>191.439575</ele>
        <time>2021-02-25T13:26:43Z</time>
      </trkpt>
      <trkpt lat="47.05955" lon="5.42956">
        <ele>191.439575</ele>
        <time>2021-02-25T13:26:48Z</time>
      </trkpt>
      <trkpt lat="47.05961" lon="5.42998">
        <ele>191.439575</ele>
        <time>2021-02-25T13:26:53Z</time>
      </trkpt>
      <trkpt lat="47.05966" lon="5.43175">
        <ele>191.439575</ele>
        <time>2021-02-25T13:27:12Z</time>
      </trkpt>
      <trkpt lat="47.05966" lon="5.43252">
        <ele>190.958984</ele>
        <time>2021-02-25T13:27:20Z</time>
      </trkpt>
      <trkpt lat="47.05967" lon="5.43301">
        <ele>190.958984</ele>
        <time>2021-02-25T13:27:27Z</time>
      </trkpt>
      <trkpt lat="47.05966" lon="5.43433">
        <ele>191.439575</ele>
        <time>2021-02-25T13:27:42Z</time>
      </trkpt>
      <trkpt lat="47.05967" lon="5.43653">
        <ele>193.362305</ele>
        <time>2021-02-25T13:28:06Z</time>
      </trkpt>
      <trkpt lat="47.05971" lon="5.43705">
        <ele>192.881714</ele>
        <time>2021-02-25T13:28:12Z</time>
      </trkpt>
      <trkpt lat="47.05968" lon="5.43745">
        <ele>192.401123</ele>
        <time>2021-02-25T13:28:17Z</time>
      </trkpt>
      <trkpt lat="47.05963" lon="5.43782">
        <ele>192.881714</ele>
        <time>2021-02-25T13:28:21Z</time>
      </trkpt>
      <trkpt lat="47.05912" lon="5.43874">
        <ele>191.920288</ele>
        <time>2021-02-25T13:28:34Z</time>
      </trkpt>
      <trkpt lat="47.05826" lon="5.43992">
        <ele>191.920288</ele>
        <time>2021-02-25T13:28:52Z</time>
      </trkpt>
      <trkpt lat="47.05693" lon="5.44163">
        <ele>191.920288</ele>
        <time>2021-02-25T13:29:20Z</time>
      </trkpt>
      <trkpt lat="47.05666" lon="5.44195">
        <ele>192.881714</ele>
        <time>2021-02-25T13:29:26Z</time>
      </trkpt>
      <trkpt lat="47.05646" lon="5.44202">
        <ele>191.920288</ele>
        <time>2021-02-25T13:29:30Z</time>
      </trkpt>
      <trkpt lat="47.05636" lon="5.4421">
        <ele>191.920288</ele>
        <time>2021-02-25T13:29:32Z</time>
      </trkpt>
      <trkpt lat="47.05615" lon="5.44258">
        <ele>194.32373</ele>
        <time>2021-02-25T13:29:41Z</time>
      </trkpt>
      <trkpt lat="47.05609" lon="5.44267">
        <ele>193.843018</ele>
        <time>2021-02-25T13:29:43Z</time>
      </trkpt>
      <trkpt lat="47.05601" lon="5.44276">
        <ele>193.843018</ele>
        <time>2021-02-25T13:29:45Z</time>
      </trkpt>
      <trkpt lat="47.05561" lon="5.4433">
        <ele>194.32373</ele>
        <time>2021-02-25T13:29:56Z</time>
      </trkpt>
      <trkpt lat="47.0555" lon="5.44353">
        <ele>195.284912</ele>
        <time>2021-02-25T13:30:00Z</time>
      </trkpt>
      <trkpt lat="47.05545" lon="5.4438">
        <ele>194.804321</ele>
        <time>2021-02-25T13:30:04Z</time>
      </trkpt>
      <trkpt lat="47.05546" lon="5.44411">
        <ele>194.32373</ele>
        <time>2021-02-25T13:30:08Z</time>
      </trkpt>
      <trkpt lat="47.05589" lon="5.44563">
        <ele>193.843018</ele>
        <time>2021-02-25T13:30:27Z</time>
      </trkpt>
      <trkpt lat="47.05648" lon="5.44757">
        <ele>193.843018</ele>
        <time>2021-02-25T13:30:50Z</time>
      </trkpt>
      <trkpt lat="47.05714" lon="5.44959">
        <ele>193.843018</ele>
        <time>2021-02-25T13:31:12Z</time>
      </trkpt>
      <trkpt lat="47.05783" lon="5.45189">
        <ele>193.843018</ele>
        <time>2021-02-25T13:31:36Z</time>
      </trkpt>
      <trkpt lat="47.05862" lon="5.45439">
        <ele>194.32373</ele>
        <time>2021-02-25T13:32:02Z</time>
      </trkpt>
      <trkpt lat="47.05946" lon="5.45704">
        <ele>193.362305</ele>
        <time>2021-02-25T13:32:30Z</time>
      </trkpt>
      <trkpt lat="47.05995" lon="5.45853">
        <ele>192.881714</ele>
        <time>2021-02-25T13:32:46Z</time>
      </trkpt>
      <trkpt lat="47.06057" lon="5.4605">
        <ele>192.881714</ele>
        <time>2021-02-25T13:33:07Z</time>
      </trkpt>
      <trkpt lat="47.06061" lon="5.46058">
        <ele>192.881714</ele>
        <time>2021-02-25T13:33:08Z</time>
      </trkpt>
      <trkpt lat="47.06075" lon="5.46077">
        <ele>193.362305</ele>
        <time>2021-02-25T13:33:11Z</time>
      </trkpt>
      <trkpt lat="47.06089" lon="5.461">
        <ele>192.401123</ele>
        <time>2021-02-25T13:33:15Z</time>
      </trkpt>
      <trkpt lat="47.06108" lon="5.46109">
        <ele>193.362305</ele>
        <time>2021-02-25T13:33:19Z</time>
      </trkpt>
      <trkpt lat="47.06129" lon="5.4612">
        <ele>193.362305</ele>
        <time>2021-02-25T13:33:23Z</time>
      </trkpt>
      <trkpt lat="47.06243" lon="5.462">
        <ele>193.362305</ele>
        <time>2021-02-25T13:33:42Z</time>
      </trkpt>
      <trkpt lat="47.06351" lon="5.46289">
        <ele>192.881714</ele>
        <time>2021-02-25T13:34:00Z</time>
      </trkpt>
      <trkpt lat="47.0646" lon="5.46375">
        <ele>192.881714</ele>
        <time>2021-02-25T13:34:17Z</time>
      </trkpt>
      <trkpt lat="47.06665" lon="5.46538">
        <ele>192.881714</ele>
        <time>2021-02-25T13:34:49Z</time>
      </trkpt>
      <trkpt lat="47.06699" lon="5.46563">
        <ele>192.881714</ele>
        <time>2021-02-25T13:34:54Z</time>
      </trkpt>
      <trkpt lat="47.06795" lon="5.46632">
        <ele>193.843018</ele>
        <time>2021-02-25T13:35:09Z</time>
      </trkpt>
      <trkpt lat="47.06886" lon="5.46698">
        <ele>193.843018</ele>
        <time>2021-02-25T13:35:24Z</time>
      </trkpt>
      <trkpt lat="47.0706" lon="5.46837">
        <ele>193.362305</ele>
        <time>2021-02-25T13:35:52Z</time>
      </trkpt>
      <trkpt lat="47.07174" lon="5.46928">
        <ele>193.362305</ele>
        <time>2021-02-25T13:36:10Z</time>
      </trkpt>
      <trkpt lat="47.07189" lon="5.46948">
        <ele>193.362305</ele>
        <time>2021-02-25T13:36:13Z</time>
      </trkpt>
      <trkpt lat="47.07243" lon="5.46993">
        <ele>193.362305</ele>
        <time>2021-02-25T13:36:22Z</time>
      </trkpt>
      <trkpt lat="47.0726" lon="5.47018">
        <ele>193.362305</ele>
        <time>2021-02-25T13:36:26Z</time>
      </trkpt>
      <trkpt lat="47.07288" lon="5.47032">
        <ele>193.362305</ele>
        <time>2021-02-25T13:36:32Z</time>
      </trkpt>
      <trkpt lat="47.07348" lon="5.47078">
        <ele>193.362305</ele>
        <time>2021-02-25T13:36:43Z</time>
      </trkpt>
      <trkpt lat="47.0749" lon="5.47188">
        <ele>193.362305</ele>
        <time>2021-02-25T13:37:07Z</time>
      </trkpt>
      <trkpt lat="47.07604" lon="5.47287">
        <ele>193.362305</ele>
        <time>2021-02-25T13:37:27Z</time>
      </trkpt>
      <trkpt lat="47.07686" lon="5.47419">
        <ele>193.362305</ele>
        <time>2021-02-25T13:37:45Z</time>
      </trkpt>
      <trkpt lat="47.078" lon="5.47599">
        <ele>193.843018</ele>
        <time>2021-02-25T13:38:08Z</time>
      </trkpt>
      <trkpt lat="47.07894" lon="5.47742">
        <ele>194.804321</ele>
        <time>2021-02-25T13:38:27Z</time>
      </trkpt>
      <trkpt lat="47.07965" lon="5.47852">
        <ele>194.804321</ele>
        <time>2021-02-25T13:38:42Z</time>
      </trkpt>
      <trkpt lat="47.08024" lon="5.4795">
        <ele>195.765625</ele>
        <time>2021-02-25T13:38:56Z</time>
      </trkpt>
      <trkpt lat="47.08098" lon="5.48029">
        <ele>195.765625</ele>
        <time>2021-02-25T13:39:10Z</time>
      </trkpt>
      <trkpt lat="47.08191" lon="5.48137">
        <ele>195.284912</ele>
        <time>2021-02-25T13:39:27Z</time>
      </trkpt>
      <trkpt lat="47.08258" lon="5.48248">
        <ele>194.804321</ele>
        <time>2021-02-25T13:39:41Z</time>
      </trkpt>
      <trkpt lat="47.08286" lon="5.48291">
        <ele>195.284912</ele>
        <time>2021-02-25T13:39:47Z</time>
      </trkpt>
      <trkpt lat="47.08357" lon="5.4836">
        <ele>195.284912</ele>
        <time>2021-02-25T13:40:00Z</time>
      </trkpt>
      <trkpt lat="47.08425" lon="5.48476">
        <ele>196.246338</ele>
        <time>2021-02-25T13:40:16Z</time>
      </trkpt>
      <trkpt lat="47.08491" lon="5.48579">
        <ele>196.246338</ele>
        <time>2021-02-25T13:40:36Z</time>
      </trkpt>
      <trkpt lat="47.08524" lon="5.48636">
        <ele>196.726929</ele>
        <time>2021-02-25T13:40:49Z</time>
      </trkpt>
      <trkpt lat="47.08585" lon="5.4874">
        <ele>195.765625</ele>
        <time>2021-02-25T13:41:09Z</time>
      </trkpt>
      <trkpt lat="47.08639" lon="5.48863">
        <ele>195.765625</ele>
        <time>2021-02-25T13:41:31Z</time>
      </trkpt>
      <trkpt lat="47.08687" lon="5.48972">
        <ele>195.284912</ele>
        <time>2021-02-25T13:41:49Z</time>
      </trkpt>
      <trkpt lat="47.08724" lon="5.49064">
        <ele>196.246338</ele>
        <time>2021-02-25T13:42:08Z</time>
      </trkpt>
      <trkpt lat="47.08741" lon="5.49103">
        <ele>196.246338</ele>
        <time>2021-02-25T13:42:18Z</time>
      </trkpt>
      <trkpt lat="47.08798" lon="5.49159">
        <ele>196.726929</ele>
        <time>2021-02-25T13:42:34Z</time>
      </trkpt>
      <trkpt lat="47.08855" lon="5.49208">
        <ele>197.20752</ele>
        <time>2021-02-25T13:42:51Z</time>
      </trkpt>
      <trkpt lat="47.08871" lon="5.49241">
        <ele>197.20752</ele>
        <time>2021-02-25T13:42:58Z</time>
      </trkpt>
      <trkpt lat="47.08875" lon="5.49251">
        <ele>197.20752</ele>
        <time>2021-02-25T13:43:00Z</time>
      </trkpt>
      <trkpt lat="47.08874" lon="5.49271">
        <ele>199.130127</ele>
        <time>2021-02-25T13:43:04Z</time>
      </trkpt>
      <trkpt lat="47.08869" lon="5.49275">
        <ele>199.130127</ele>
        <time>2021-02-25T13:43:06Z</time>
      </trkpt>
      <trkpt lat="47.08865" lon="5.49277">
        <ele>199.61084</ele>
        <time>2021-02-25T13:43:08Z</time>
      </trkpt>
      <trkpt lat="47.08864" lon="5.49295">
        <ele>198.168945</ele>
        <time>2021-02-25T13:43:12Z</time>
      </trkpt>
      <trkpt lat="47.08869" lon="5.49309">
        <ele>197.20752</ele>
        <time>2021-02-25T13:43:14Z</time>
      </trkpt>
      <trkpt lat="47.08882" lon="5.49351">
        <ele>197.20752</ele>
        <time>2021-02-25T13:43:20Z</time>
      </trkpt>
      <trkpt lat="47.08909" lon="5.4944">
        <ele>197.20752</ele>
        <time>2021-02-25T13:43:36Z</time>
      </trkpt>
      <trkpt lat="47.08915" lon="5.49519">
        <ele>197.688232</ele>
        <time>2021-02-25T13:43:50Z</time>
      </trkpt>
      <trkpt lat="47.08944" lon="5.49579">
        <ele>197.688232</ele>
        <time>2021-02-25T13:44:01Z</time>
      </trkpt>
      <trkpt lat="47.08958" lon="5.49595">
        <ele>198.168945</ele>
        <time>2021-02-25T13:44:05Z</time>
      </trkpt>
      <trkpt lat="47.09026" lon="5.4964">
        <ele>197.20752</ele>
        <time>2021-02-25T13:44:23Z</time>
      </trkpt>
      <trkpt lat="47.09038" lon="5.49651">
        <ele>197.20752</ele>
        <time>2021-02-25T13:44:32Z</time>
      </trkpt>
      <trkpt lat="47.09035" lon="5.49658">
        <ele>197.688232</ele>
        <time>2021-02-25T13:44:58Z</time>
      </trkpt>
      <trkpt lat="47.09036" lon="5.49658">
        <ele>197.688232</ele>
        <time>2021-02-25T13:46:55Z</time>
      </trkpt>
      <trkpt lat="47.09036" lon="5.49658">
        <ele>197.20752</ele>
        <time>2021-02-25T13:49:27Z</time>
      </trkpt>
      <trkpt lat="47.09032" lon="5.49647">
        <ele>196.726929</ele>
        <time>2021-02-25T13:49:33Z</time>
      </trkpt>
      <trkpt lat="47.09027" lon="5.49645">
        <ele>196.726929</ele>
        <time>2021-02-25T13:49:37Z</time>
      </trkpt>
      <trkpt lat="47.08999" lon="5.49618">
        <ele>196.726929</ele>
        <time>2021-02-25T13:49:52Z</time>
      </trkpt>
      <trkpt lat="47.08949" lon="5.4958">
        <ele>196.246338</ele>
        <time>2021-02-25T13:50:09Z</time>
      </trkpt>
      <trkpt lat="47.08911" lon="5.49487">
        <ele>196.726929</ele>
        <time>2021-02-25T13:50:28Z</time>
      </trkpt>
      <trkpt lat="47.08906" lon="5.49441">
        <ele>196.246338</ele>
        <time>2021-02-25T13:50:35Z</time>
      </trkpt>
      <trkpt lat="47.08898" lon="5.49404">
        <ele>196.246338</ele>
        <time>2021-02-25T13:50:41Z</time>
      </trkpt>
      <trkpt lat="47.08882" lon="5.49351">
        <ele>195.765625</ele>
        <time>2021-02-25T13:50:50Z</time>
      </trkpt>
      <trkpt lat="47.08862" lon="5.49282">
        <ele>197.20752</ele>
        <time>2021-02-25T13:51:02Z</time>
      </trkpt>
      <trkpt lat="47.08875" lon="5.49268">
        <ele>197.20752</ele>
        <time>2021-02-25T13:51:08Z</time>
      </trkpt>
      <trkpt lat="47.08873" lon="5.49243">
        <ele>195.765625</ele>
        <time>2021-02-25T13:51:12Z</time>
      </trkpt>
      <trkpt lat="47.08849" lon="5.49195">
        <ele>195.765625</ele>
        <time>2021-02-25T13:51:21Z</time>
      </trkpt>
      <trkpt lat="47.08796" lon="5.49155">
        <ele>195.765625</ele>
        <time>2021-02-25T13:51:35Z</time>
      </trkpt>
      <trkpt lat="47.0874" lon="5.49096">
        <ele>194.804321</ele>
        <time>2021-02-25T13:51:50Z</time>
      </trkpt>
      <trkpt lat="47.08719" lon="5.49049">
        <ele>195.284912</ele>
        <time>2021-02-25T13:51:59Z</time>
      </trkpt>
      <trkpt lat="47.08674" lon="5.48941">
        <ele>194.32373</ele>
        <time>2021-02-25T13:52:19Z</time>
      </trkpt>
      <trkpt lat="47.08627" lon="5.48831">
        <ele>194.804321</ele>
        <time>2021-02-25T13:52:40Z</time>
      </trkpt>
      <trkpt lat="47.08621" lon="5.48816">
        <ele>194.804321</ele>
        <time>2021-02-25T13:52:43Z</time>
      </trkpt>
      <trkpt lat="47.08598" lon="5.48763">
        <ele>194.804321</ele>
        <time>2021-02-25T13:52:53Z</time>
      </trkpt>
      <trkpt lat="47.08555" lon="5.48679">
        <ele>195.284912</ele>
        <time>2021-02-25T13:53:12Z</time>
      </trkpt>
      <trkpt lat="47.08505" lon="5.48603">
        <ele>196.246338</ele>
        <time>2021-02-25T13:53:32Z</time>
      </trkpt>
      <trkpt lat="47.08445" lon="5.48508">
        <ele>195.765625</ele>
        <time>2021-02-25T13:53:54Z</time>
      </trkpt>
      <trkpt lat="47.08392" lon="5.48416">
        <ele>195.765625</ele>
        <time>2021-02-25T13:54:14Z</time>
      </trkpt>
      <trkpt lat="47.08386" lon="5.48407">
        <ele>196.246338</ele>
        <time>2021-02-25T13:54:16Z</time>
      </trkpt>
      <trkpt lat="47.08367" lon="5.48377">
        <ele>195.765625</ele>
        <time>2021-02-25T13:54:23Z</time>
      </trkpt>
      <trkpt lat="47.08291" lon="5.48291">
        <ele>195.284912</ele>
        <time>2021-02-25T13:54:46Z</time>
      </trkpt>
      <trkpt lat="47.08258" lon="5.48241">
        <ele>196.246338</ele>
        <time>2021-02-25T13:54:57Z</time>
      </trkpt>
      <trkpt lat="47.08214" lon="5.48164">
        <ele>195.765625</ele>
        <time>2021-02-25T13:55:12Z</time>
      </trkpt>
      <trkpt lat="47.08143" lon="5.48074">
        <ele>196.246338</ele>
        <time>2021-02-25T13:55:33Z</time>
      </trkpt>
      <trkpt lat="47.08059" lon="5.47986">
        <ele>195.765625</ele>
        <time>2021-02-25T13:55:57Z</time>
      </trkpt>
      <trkpt lat="47.08003" lon="5.47908">
        <ele>195.765625</ele>
        <time>2021-02-25T13:56:14Z</time>
      </trkpt>
      <trkpt lat="47.07937" lon="5.47802">
        <ele>194.804321</ele>
        <time>2021-02-25T13:56:35Z</time>
      </trkpt>
      <trkpt lat="47.07881" lon="5.47715">
        <ele>194.32373</ele>
        <time>2021-02-25T13:56:53Z</time>
      </trkpt>
      <trkpt lat="47.07865" lon="5.47691">
        <ele>193.843018</ele>
        <time>2021-02-25T13:56:58Z</time>
      </trkpt>
      <trkpt lat="47.07803" lon="5.47597">
        <ele>193.843018</ele>
        <time>2021-02-25T13:57:18Z</time>
      </trkpt>
      <trkpt lat="47.07713" lon="5.47454">
        <ele>193.843018</ele>
        <time>2021-02-25T13:57:48Z</time>
      </trkpt>
      <trkpt lat="47.07648" lon="5.4735">
        <ele>193.362305</ele>
        <time>2021-02-25T13:58:10Z</time>
      </trkpt>
      <trkpt lat="47.07582" lon="5.47259">
        <ele>193.362305</ele>
        <time>2021-02-25T13:58:30Z</time>
      </trkpt>
      <trkpt lat="47.0749" lon="5.47189">
        <ele>193.362305</ele>
        <time>2021-02-25T13:58:52Z</time>
      </trkpt>
      <trkpt lat="47.0738" lon="5.47107">
        <ele>192.881714</ele>
        <time>2021-02-25T13:59:18Z</time>
      </trkpt>
      <trkpt lat="47.07298" lon="5.47042">
        <ele>193.362305</ele>
        <time>2021-02-25T13:59:39Z</time>
      </trkpt>
      <trkpt lat="47.07255" lon="5.47011">
        <ele>193.362305</ele>
        <time>2021-02-25T13:59:51Z</time>
      </trkpt>
      <trkpt lat="47.07242" lon="5.46996">
        <ele>193.362305</ele>
        <time>2021-02-25T13:59:55Z</time>
      </trkpt>
      <trkpt lat="47.07201" lon="5.46963">
        <ele>193.362305</ele>
        <time>2021-02-25T14:00:06Z</time>
      </trkpt>
      <trkpt lat="47.07185" lon="5.46943">
        <ele>193.843018</ele>
        <time>2021-02-25T14:00:11Z</time>
      </trkpt>
      <trkpt lat="47.0713" lon="5.46892">
        <ele>193.843018</ele>
        <time>2021-02-25T14:00:27Z</time>
      </trkpt>
      <trkpt lat="47.07067" lon="5.46842">
        <ele>194.804321</ele>
        <time>2021-02-25T14:00:45Z</time>
      </trkpt>
      <trkpt lat="47.07017" lon="5.46802">
        <ele>193.843018</ele>
        <time>2021-02-25T14:00:59Z</time>
      </trkpt>
      <trkpt lat="47.06916" lon="5.46721">
        <ele>194.32373</ele>
        <time>2021-02-25T14:01:26Z</time>
      </trkpt>
      <trkpt lat="47.06859" lon="5.46679">
        <ele>193.362305</ele>
        <time>2021-02-25T14:01:42Z</time>
      </trkpt>
      <trkpt lat="47.0679" lon="5.4663">
        <ele>194.804321</ele>
        <time>2021-02-25T14:02:00Z</time>
      </trkpt>
      <trkpt lat="47.06775" lon="5.46625">
        <ele>194.32373</ele>
        <time>2021-02-25T14:02:09Z</time>
      </trkpt>
      <trkpt lat="47.06777" lon="5.46625">
        <ele>194.32373</ele>
        <time>2021-02-25T14:02:14Z</time>
      </trkpt>
      <trkpt lat="47.06748" lon="5.46603">
        <ele>194.32373</ele>
        <time>2021-02-25T14:02:27Z</time>
      </trkpt>
      <trkpt lat="47.06686" lon="5.46553">
        <ele>193.843018</ele>
        <time>2021-02-25T14:02:45Z</time>
      </trkpt>
      <trkpt lat="47.06603" lon="5.4649">
        <ele>193.843018</ele>
        <time>2021-02-25T14:03:09Z</time>
      </trkpt>
      <trkpt lat="47.06512" lon="5.46415">
        <ele>194.32373</ele>
        <time>2021-02-25T14:03:33Z</time>
      </trkpt>
      <trkpt lat="47.06413" lon="5.46337">
        <ele>194.32373</ele>
        <time>2021-02-25T14:03:59Z</time>
      </trkpt>
      <trkpt lat="47.06356" lon="5.46291">
        <ele>193.843018</ele>
        <time>2021-02-25T14:04:13Z</time>
      </trkpt>
      <trkpt lat="47.06279" lon="5.46226">
        <ele>193.843018</ele>
        <time>2021-02-25T14:04:32Z</time>
      </trkpt>
      <trkpt lat="47.06252" lon="5.46204">
        <ele>194.32373</ele>
        <time>2021-02-25T14:04:39Z</time>
      </trkpt>
      <trkpt lat="47.06212" lon="5.46183">
        <ele>193.843018</ele>
        <time>2021-02-25T14:04:48Z</time>
      </trkpt>
      <trkpt lat="47.06155" lon="5.46142">
        <ele>193.843018</ele>
        <time>2021-02-25T14:05:04Z</time>
      </trkpt>
      <trkpt lat="47.06129" lon="5.46121">
        <ele>194.32373</ele>
        <time>2021-02-25T14:05:16Z</time>
      </trkpt>
      <trkpt lat="47.06126" lon="5.46121">
        <ele>194.804321</ele>
        <time>2021-02-25T14:05:18Z</time>
      </trkpt>
      <trkpt lat="47.06098" lon="5.4611">
        <ele>194.804321</ele>
        <time>2021-02-25T14:05:27Z</time>
      </trkpt>
      <trkpt lat="47.06064" lon="5.4606">
        <ele>193.843018</ele>
        <time>2021-02-25T14:05:39Z</time>
      </trkpt>
      <trkpt lat="47.06053" lon="5.4604">
        <ele>193.362305</ele>
        <time>2021-02-25T14:05:43Z</time>
      </trkpt>
      <trkpt lat="47.06014" lon="5.45904">
        <ele>194.32373</ele>
        <time>2021-02-25T14:06:07Z</time>
      </trkpt>
      <trkpt lat="47.05968" lon="5.45761">
        <ele>194.804321</ele>
        <time>2021-02-25T14:06:32Z</time>
      </trkpt>
      <trkpt lat="47.05937" lon="5.45669">
        <ele>194.804321</ele>
        <time>2021-02-25T14:06:55Z</time>
      </trkpt>
      <trkpt lat="47.05936" lon="5.45658">
        <ele>194.804321</ele>
        <time>2021-02-25T14:07:08Z</time>
      </trkpt>
      <trkpt lat="47.05937" lon="5.45654">
        <ele>194.32373</ele>
        <time>2021-02-25T14:07:36Z</time>
      </trkpt>
      <trkpt lat="47.05937" lon="5.45654">
        <ele>192.881714</ele>
        <time>2021-02-25T14:08:30Z</time>
      </trkpt>
      <trkpt lat="47.05929" lon="5.45631">
        <ele>194.804321</ele>
        <time>2021-02-25T14:09:23Z</time>
      </trkpt>
      <trkpt lat="47.05928" lon="5.45629">
        <ele>195.284912</ele>
        <time>2021-02-25T14:09:24Z</time>
      </trkpt>
      <trkpt lat="47.05924" lon="5.45623">
        <ele>194.804321</ele>
        <time>2021-02-25T14:09:28Z</time>
      </trkpt>
      <trkpt lat="47.05903" lon="5.45554">
        <ele>194.804321</ele>
        <time>2021-02-25T14:09:47Z</time>
      </trkpt>
      <trkpt lat="47.05863" lon="5.45425">
        <ele>194.804321</ele>
        <time>2021-02-25T14:10:12Z</time>
      </trkpt>
      <trkpt lat="47.05844" lon="5.45364">
        <ele>194.804321</ele>
        <time>2021-02-25T14:10:24Z</time>
      </trkpt>
      <trkpt lat="47.05816" lon="5.45277">
        <ele>195.284912</ele>
        <time>2021-02-25T14:10:42Z</time>
      </trkpt>
      <trkpt lat="47.05813" lon="5.45267">
        <ele>194.804321</ele>
        <time>2021-02-25T14:10:44Z</time>
      </trkpt>
      <trkpt lat="47.05766" lon="5.45122">
        <ele>194.804321</ele>
        <time>2021-02-25T14:11:09Z</time>
      </trkpt>
      <trkpt lat="47.05737" lon="5.45025">
        <ele>194.804321</ele>
        <time>2021-02-25T14:11:26Z</time>
      </trkpt>
      <trkpt lat="47.057" lon="5.44897">
        <ele>194.32373</ele>
        <time>2021-02-25T14:11:46Z</time>
      </trkpt>
      <trkpt lat="47.05683" lon="5.44849">
        <ele>194.32373</ele>
        <time>2021-02-25T14:11:54Z</time>
      </trkpt>
      <trkpt lat="47.05639" lon="5.44711">
        <ele>194.32373</ele>
        <time>2021-02-25T14:12:17Z</time>
      </trkpt>
      <trkpt lat="47.05625" lon="5.44669">
        <ele>194.804321</ele>
        <time>2021-02-25T14:12:25Z</time>
      </trkpt>
      <trkpt lat="47.05584" lon="5.4453">
        <ele>193.843018</ele>
        <time>2021-02-25T14:12:47Z</time>
      </trkpt>
      <trkpt lat="47.05547" lon="5.444">
        <ele>194.32373</ele>
        <time>2021-02-25T14:13:08Z</time>
      </trkpt>
      <trkpt lat="47.05553" lon="5.44349">
        <ele>194.32373</ele>
        <time>2021-02-25T14:13:16Z</time>
      </trkpt>
      <trkpt lat="47.05609" lon="5.44271">
        <ele>194.32373</ele>
        <time>2021-02-25T14:13:33Z</time>
      </trkpt>
      <trkpt lat="47.05617" lon="5.44264">
        <ele>194.804321</ele>
        <time>2021-02-25T14:13:35Z</time>
      </trkpt>
      <trkpt lat="47.05627" lon="5.44242">
        <ele>193.843018</ele>
        <time>2021-02-25T14:13:39Z</time>
      </trkpt>
      <trkpt lat="47.05639" lon="5.44216">
        <ele>192.881714</ele>
        <time>2021-02-25T14:13:43Z</time>
      </trkpt>
      <trkpt lat="47.05646" lon="5.44204">
        <ele>192.881714</ele>
        <time>2021-02-25T14:13:45Z</time>
      </trkpt>
      <trkpt lat="47.05667" lon="5.44205">
        <ele>193.362305</ele>
        <time>2021-02-25T14:13:49Z</time>
      </trkpt>
      <trkpt lat="47.05724" lon="5.44136">
        <ele>192.881714</ele>
        <time>2021-02-25T14:14:05Z</time>
      </trkpt>
      <trkpt lat="47.05849" lon="5.43973">
        <ele>192.401123</ele>
        <time>2021-02-25T14:14:38Z</time>
      </trkpt>
      <trkpt lat="47.05864" lon="5.43953">
        <ele>192.401123</ele>
        <time>2021-02-25T14:14:42Z</time>
      </trkpt>
      <trkpt lat="47.05935" lon="5.43853">
        <ele>192.401123</ele>
        <time>2021-02-25T14:15:02Z</time>
      </trkpt>
      <trkpt lat="47.05969" lon="5.4378">
        <ele>192.881714</ele>
        <time>2021-02-25T14:15:14Z</time>
      </trkpt>
      <trkpt lat="47.05974" lon="5.43734">
        <ele>193.362305</ele>
        <time>2021-02-25T14:15:21Z</time>
      </trkpt>
      <trkpt lat="47.05975" lon="5.43707">
        <ele>193.362305</ele>
        <time>2021-02-25T14:15:25Z</time>
      </trkpt>
      <trkpt lat="47.05976" lon="5.43672">
        <ele>192.881714</ele>
        <time>2021-02-25T14:15:30Z</time>
      </trkpt>
      <trkpt lat="47.05972" lon="5.43573">
        <ele>191.439575</ele>
        <time>2021-02-25T14:15:45Z</time>
      </trkpt>
      <trkpt lat="47.0597" lon="5.43498">
        <ele>191.920288</ele>
        <time>2021-02-25T14:16:00Z</time>
      </trkpt>
      <trkpt lat="47.05971" lon="5.43396">
        <ele>191.920288</ele>
        <time>2021-02-25T14:16:15Z</time>
      </trkpt>
      <trkpt lat="47.0597" lon="5.43222">
        <ele>191.439575</ele>
        <time>2021-02-25T14:16:40Z</time>
      </trkpt>
      <trkpt lat="47.0597" lon="5.431">
        <ele>191.439575</ele>
        <time>2021-02-25T14:16:57Z</time>
      </trkpt>
      <trkpt lat="47.05969" lon="5.43079">
        <ele>191.439575</ele>
        <time>2021-02-25T14:17:00Z</time>
      </trkpt>
      <trkpt lat="47.0597" lon="5.42997">
        <ele>191.920288</ele>
        <time>2021-02-25T14:17:12Z</time>
      </trkpt>
      <trkpt lat="47.05964" lon="5.42971">
        <ele>192.401123</ele>
        <time>2021-02-25T14:17:16Z</time>
      </trkpt>
      <trkpt lat="47.05963" lon="5.42936">
        <ele>191.920288</ele>
        <time>2021-02-25T14:17:22Z</time>
      </trkpt>
      <trkpt lat="47.05968" lon="5.42827">
        <ele>192.401123</ele>
        <time>2021-02-25T14:17:39Z</time>
      </trkpt>
      <trkpt lat="47.05969" lon="5.42682">
        <ele>194.804321</ele>
        <time>2021-02-25T14:18:02Z</time>
      </trkpt>
      <trkpt lat="47.0597" lon="5.42675">
        <ele>195.765625</ele>
        <time>2021-02-25T14:18:05Z</time>
      </trkpt>
      <trkpt lat="47.05946" lon="5.42674">
        <ele>196.246338</ele>
        <time>2021-02-25T14:18:19Z</time>
      </trkpt>
      <trkpt lat="47.05911" lon="5.42667">
        <ele>193.843018</ele>
        <time>2021-02-25T14:18:28Z</time>
      </trkpt>
      <trkpt lat="47.05829" lon="5.42659">
        <ele>191.920288</ele>
        <time>2021-02-25T14:18:41Z</time>
      </trkpt>
      <trkpt lat="47.05686" lon="5.42683">
        <ele>191.920288</ele>
        <time>2021-02-25T14:19:10Z</time>
      </trkpt>
      <trkpt lat="47.05625" lon="5.42681">
        <ele>190.478394</ele>
        <time>2021-02-25T14:19:26Z</time>
      </trkpt>
      <trkpt lat="47.05593" lon="5.42628">
        <ele>190.958984</ele>
        <time>2021-02-25T14:19:42Z</time>
      </trkpt>
      <trkpt lat="47.05548" lon="5.42535">
        <ele>189.516968</ele>
        <time>2021-02-25T14:19:59Z</time>
      </trkpt>
      <trkpt lat="47.05452" lon="5.42348">
        <ele>190.958984</ele>
        <time>2021-02-25T14:20:32Z</time>
      </trkpt>
      <trkpt lat="47.0539" lon="5.42264">
        <ele>190.478394</ele>
        <time>2021-02-25T14:20:49Z</time>
      </trkpt>
      <trkpt lat="47.0538" lon="5.4224">
        <ele>189.997681</ele>
        <time>2021-02-25T14:20:53Z</time>
      </trkpt>
      <trkpt lat="47.05374" lon="5.42173">
        <ele>190.478394</ele>
        <time>2021-02-25T14:21:06Z</time>
      </trkpt>
      <trkpt lat="47.05361" lon="5.42164">
        <ele>189.997681</ele>
        <time>2021-02-25T14:21:10Z</time>
      </trkpt>
      <trkpt lat="47.05284" lon="5.42164">
        <ele>190.478394</ele>
        <time>2021-02-25T14:21:28Z</time>
      </trkpt>
      <trkpt lat="47.05176" lon="5.42166">
        <ele>190.958984</ele>
        <time>2021-02-25T14:21:53Z</time>
      </trkpt>
      <trkpt lat="47.05123" lon="5.42166">
        <ele>190.958984</ele>
        <time>2021-02-25T14:22:05Z</time>
      </trkpt>
      <trkpt lat="47.05114" lon="5.42145">
        <ele>189.997681</ele>
        <time>2021-02-25T14:22:10Z</time>
      </trkpt>
      <trkpt lat="47.05113" lon="5.41989">
        <ele>190.478394</ele>
        <time>2021-02-25T14:22:33Z</time>
      </trkpt>
      <trkpt lat="47.05111" lon="5.41896">
        <ele>190.478394</ele>
        <time>2021-02-25T14:22:48Z</time>
      </trkpt>
      <trkpt lat="47.05109" lon="5.41852">
        <ele>190.478394</ele>
        <time>2021-02-25T14:22:55Z</time>
      </trkpt>
      <trkpt lat="47.05107" lon="5.4184">
        <ele>190.478394</ele>
        <time>2021-02-25T14:22:57Z</time>
      </trkpt>
      <trkpt lat="47.05104" lon="5.41828">
        <ele>190.478394</ele>
        <time>2021-02-25T14:22:59Z</time>
      </trkpt>
      <trkpt lat="47.05099" lon="5.417">
        <ele>190.478394</ele>
        <time>2021-02-25T14:23:18Z</time>
      </trkpt>
      <trkpt lat="47.05099" lon="5.41599">
        <ele>189.997681</ele>
        <time>2021-02-25T14:23:34Z</time>
      </trkpt>
      <trkpt lat="47.05101" lon="5.41406">
        <ele>190.478394</ele>
        <time>2021-02-25T14:24:04Z</time>
      </trkpt>
      <trkpt lat="47.05101" lon="5.41403">
        <ele>189.997681</ele>
        <time>2021-02-25T14:24:05Z</time>
      </trkpt>
      <trkpt lat="47.05076" lon="5.41393">
        <ele>189.997681</ele>
        <time>2021-02-25T14:24:16Z</time>
      </trkpt>
      <trkpt lat="47.0501" lon="5.41396">
        <ele>189.997681</ele>
        <time>2021-02-25T14:24:33Z</time>
      </trkpt>
      <trkpt lat="47.04968" lon="5.41396">
        <ele>189.516968</ele>
        <time>2021-02-25T14:24:47Z</time>
      </trkpt>
      <trkpt lat="47.04919" lon="5.41396">
        <ele>189.516968</ele>
        <time>2021-02-25T14:25:00Z</time>
      </trkpt>
      <trkpt lat="47.04869" lon="5.41407">
        <ele>190.478394</ele>
        <time>2021-02-25T14:25:16Z</time>
      </trkpt>
      <trkpt lat="47.04849" lon="5.41412">
        <ele>190.478394</ele>
        <time>2021-02-25T14:25:26Z</time>
      </trkpt>
      <trkpt lat="47.04809" lon="5.41397">
        <ele>190.478394</ele>
        <time>2021-02-25T14:25:40Z</time>
      </trkpt>
      <trkpt lat="47.04767" lon="5.41401">
        <ele>189.997681</ele>
        <time>2021-02-25T14:25:54Z</time>
      </trkpt>
      <trkpt lat="47.0474" lon="5.41385">
        <ele>190.478394</ele>
        <time>2021-02-25T14:26:03Z</time>
      </trkpt>
      <trkpt lat="47.04676" lon="5.41365">
        <ele>189.997681</ele>
        <time>2021-02-25T14:26:22Z</time>
      </trkpt>
      <trkpt lat="47.04591" lon="5.41333">
        <ele>189.997681</ele>
        <time>2021-02-25T14:26:45Z</time>
      </trkpt>
      <trkpt lat="47.04532" lon="5.41314">
        <ele>189.516968</ele>
        <time>2021-02-25T14:27:00Z</time>
      </trkpt>
      <trkpt lat="47.04466" lon="5.413">
        <ele>189.997681</ele>
        <time>2021-02-25T14:27:18Z</time>
      </trkpt>
      <trkpt lat="47.04389" lon="5.41287">
        <ele>190.478394</ele>
        <time>2021-02-25T14:27:38Z</time>
      </trkpt>
      <trkpt lat="47.0433" lon="5.41284">
        <ele>190.478394</ele>
        <time>2021-02-25T14:27:53Z</time>
      </trkpt>
      <trkpt lat="47.04273" lon="5.41284">
        <ele>190.958984</ele>
        <time>2021-02-25T14:28:08Z</time>
      </trkpt>
      <trkpt lat="47.04217" lon="5.4128">
        <ele>190.478394</ele>
        <time>2021-02-25T14:28:26Z</time>
      </trkpt>
      <trkpt lat="47.04209" lon="5.41283">
        <ele>190.478394</ele>
        <time>2021-02-25T14:28:30Z</time>
      </trkpt>
      <trkpt lat="47.04154" lon="5.41278">
        <ele>190.478394</ele>
        <time>2021-02-25T14:28:48Z</time>
      </trkpt>
      <trkpt lat="47.04119" lon="5.41277">
        <ele>189.997681</ele>
        <time>2021-02-25T14:28:57Z</time>
      </trkpt>
      <trkpt lat="47.04023" lon="5.41277">
        <ele>189.997681</ele>
        <time>2021-02-25T14:29:21Z</time>
      </trkpt>
      <trkpt lat="47.03913" lon="5.41276">
        <ele>189.997681</ele>
        <time>2021-02-25T14:29:48Z</time>
      </trkpt>
      <trkpt lat="47.03878" lon="5.41275">
        <ele>189.997681</ele>
        <time>2021-02-25T14:29:57Z</time>
      </trkpt>
      <trkpt lat="47.03869" lon="5.4127">
        <ele>190.478394</ele>
        <time>2021-02-25T14:30:00Z</time>
      </trkpt>
      <trkpt lat="47.03866" lon="5.41287">
        <ele>190.958984</ele>
        <time>2021-02-25T14:30:06Z</time>
      </trkpt>
      <trkpt lat="47.03875" lon="5.41301">
        <ele>190.478394</ele>
        <time>2021-02-25T14:30:11Z</time>
      </trkpt>
      <trkpt lat="47.03874" lon="5.41304">
        <ele>190.958984</ele>
        <time>2021-02-25T14:30:14Z</time>
      </trkpt>
      <trkpt lat="47.03863" lon="5.41312">
        <ele>190.958984</ele>
        <time>2021-02-25T14:30:20Z</time>
      </trkpt>
      <trkpt lat="47.03834" lon="5.41324">
        <ele>189.997681</ele>
        <time>2021-02-25T14:30:31Z</time>
      </trkpt>
      <trkpt lat="47.03812" lon="5.41331">
        <ele>190.478394</ele>
        <time>2021-02-25T14:30:36Z</time>
      </trkpt>
      <trkpt lat="47.03761" lon="5.41323">
        <ele>189.997681</ele>
        <time>2021-02-25T14:30:48Z</time>
      </trkpt>
      <trkpt lat="47.03706" lon="5.4127">
        <ele>189.997681</ele>
        <time>2021-02-25T14:31:04Z</time>
      </trkpt>
      <trkpt lat="47.03627" lon="5.41169">
        <ele>189.516968</ele>
        <time>2021-02-25T14:31:28Z</time>
      </trkpt>
      <trkpt lat="47.03611" lon="5.41147">
        <ele>189.997681</ele>
        <time>2021-02-25T14:31:33Z</time>
      </trkpt>
      <trkpt lat="47.03566" lon="5.41046">
        <ele>189.516968</ele>
        <time>2021-02-25T14:31:51Z</time>
      </trkpt>
      <trkpt lat="47.03563" lon="5.41041">
        <ele>189.516968</ele>
        <time>2021-02-25T14:31:52Z</time>
      </trkpt>
      <trkpt lat="47.03559" lon="5.41022">
        <ele>189.036377</ele>
        <time>2021-02-25T14:31:55Z</time>
      </trkpt>
      <trkpt lat="47.03546" lon="5.41009">
        <ele>189.516968</ele>
        <time>2021-02-25T14:31:59Z</time>
      </trkpt>
      <trkpt lat="47.03537" lon="5.41009">
        <ele>189.516968</ele>
        <time>2021-02-25T14:32:01Z</time>
      </trkpt>
      <trkpt lat="47.0352" lon="5.40999">
        <ele>189.516968</ele>
        <time>2021-02-25T14:32:05Z</time>
      </trkpt>
      <trkpt lat="47.03449" lon="5.40907">
        <ele>189.516968</ele>
        <time>2021-02-25T14:32:26Z</time>
      </trkpt>
      <trkpt lat="47.03414" lon="5.40853">
        <ele>189.516968</ele>
        <time>2021-02-25T14:32:37Z</time>
      </trkpt>
      <trkpt lat="47.03361" lon="5.40797">
        <ele>189.997681</ele>
        <time>2021-02-25T14:32:52Z</time>
      </trkpt>
      <trkpt lat="47.03352" lon="5.40785">
        <ele>189.997681</ele>
        <time>2021-02-25T14:32:55Z</time>
      </trkpt>
      <trkpt lat="47.03322" lon="5.40786">
        <ele>190.958984</ele>
        <time>2021-02-25T14:33:04Z</time>
      </trkpt>
      <trkpt lat="47.03294" lon="5.40802">
        <ele>190.958984</ele>
        <time>2021-02-25T14:33:13Z</time>
      </trkpt>
      <trkpt lat="47.0325" lon="5.40735">
        <ele>193.843018</ele>
        <time>2021-02-25T14:33:32Z</time>
      </trkpt>
      <trkpt lat="47.03198" lon="5.40706">
        <ele>196.726929</ele>
        <time>2021-02-25T14:33:50Z</time>
      </trkpt>
      <trkpt lat="47.03111" lon="5.40734">
        <ele>195.765625</ele>
        <time>2021-02-25T14:34:15Z</time>
      </trkpt>
      <trkpt lat="47.03103" lon="5.4074">
        <ele>195.765625</ele>
        <time>2021-02-25T14:34:17Z</time>
      </trkpt>
      <trkpt lat="47.0307" lon="5.40783">
        <ele>194.32373</ele>
        <time>2021-02-25T14:34:26Z</time>
      </trkpt>
      <trkpt lat="47.03053" lon="5.40791">
        <ele>192.881714</ele>
        <time>2021-02-25T14:34:30Z</time>
      </trkpt>
      <trkpt lat="47.03046" lon="5.4079">
        <ele>192.401123</ele>
        <time>2021-02-25T14:34:32Z</time>
      </trkpt>
      <trkpt lat="47.03042" lon="5.40799">
        <ele>191.920288</ele>
        <time>2021-02-25T14:34:39Z</time>
      </trkpt>
      <trkpt lat="47.03046" lon="5.40775">
        <ele>190.958984</ele>
        <time>2021-02-25T14:34:47Z</time>
      </trkpt>
      <trkpt lat="47.03045" lon="5.40768">
        <ele>191.439575</ele>
        <time>2021-02-25T14:34:58Z</time>
      </trkpt>
      <trkpt lat="47.03045" lon="5.40767">
        <ele>190.478394</ele>
        <time>2021-02-25T14:35:23Z</time>
      </trkpt>
      <trkpt lat="47.03042" lon="5.40778">
        <ele>192.401123</ele>
        <time>2021-02-25T14:35:30Z</time>
      </trkpt>
      <trkpt lat="47.03043" lon="5.40784">
        <ele>192.401123</ele>
        <time>2021-02-25T14:35:32Z</time>
      </trkpt>
      <trkpt lat="47.03035" lon="5.40813">
        <ele>192.401123</ele>
        <time>2021-02-25T14:35:38Z</time>
      </trkpt>
      <trkpt lat="47.0298" lon="5.4091">
        <ele>190.478394</ele>
        <time>2021-02-25T14:35:54Z</time>
      </trkpt>
      <trkpt lat="47.0285" lon="5.41078">
        <ele>190.958984</ele>
        <time>2021-02-25T14:36:26Z</time>
      </trkpt>
      <trkpt lat="47.02712" lon="5.41231">
        <ele>190.478394</ele>
        <time>2021-02-25T14:36:57Z</time>
      </trkpt>
      <trkpt lat="47.0257" lon="5.4137">
        <ele>190.478394</ele>
        <time>2021-02-25T14:37:28Z</time>
      </trkpt>
      <trkpt lat="47.02551" lon="5.41381">
        <ele>190.958984</ele>
        <time>2021-02-25T14:37:33Z</time>
      </trkpt>
      <trkpt lat="47.02538" lon="5.41396">
        <ele>191.920288</ele>
        <time>2021-02-25T14:37:37Z</time>
      </trkpt>
      <trkpt lat="47.02522" lon="5.41411">
        <ele>190.958984</ele>
        <time>2021-02-25T14:37:42Z</time>
      </trkpt>
      <trkpt lat="47.02351" lon="5.4142">
        <ele>190.958984</ele>
        <time>2021-02-25T14:38:16Z</time>
      </trkpt>
      <trkpt lat="47.02183" lon="5.41428">
        <ele>190.958984</ele>
        <time>2021-02-25T14:38:48Z</time>
      </trkpt>
      <trkpt lat="47.01996" lon="5.41441">
        <ele>191.439575</ele>
        <time>2021-02-25T14:39:24Z</time>
      </trkpt>
      <trkpt lat="47.01928" lon="5.41448">
        <ele>191.439575</ele>
        <time>2021-02-25T14:39:37Z</time>
      </trkpt>
      <trkpt lat="47.01894" lon="5.41448">
        <ele>191.439575</ele>
        <time>2021-02-25T14:39:45Z</time>
      </trkpt>
      <trkpt lat="47.01867" lon="5.41449">
        <ele>191.920288</ele>
        <time>2021-02-25T14:39:52Z</time>
      </trkpt>
      <trkpt lat="47.0188" lon="5.41448">
        <ele>191.920288</ele>
        <time>2021-02-25T14:40:02Z</time>
      </trkpt>
      <trkpt lat="47.0188" lon="5.41446">
        <ele>191.920288</ele>
        <time>2021-02-25T14:41:01Z</time>
      </trkpt>
      <trkpt lat="47.0188" lon="5.41445">
        <ele>191.920288</ele>
        <time>2021-02-25T14:41:42Z</time>
      </trkpt>
      <trkpt lat="47.0188" lon="5.41445">
        <ele>191.920288</ele>
        <time>2021-02-25T14:49:04Z</time>
      </trkpt>
      <trkpt lat="47.01841" lon="5.41451">
        <ele>191.439575</ele>
        <time>2021-02-25T14:49:18Z</time>
      </trkpt>
      <trkpt lat="47.01752" lon="5.41457">
        <ele>191.920288</ele>
        <time>2021-02-25T14:49:37Z</time>
      </trkpt>
      <trkpt lat="47.01588" lon="5.41465">
        <ele>192.881714</ele>
        <time>2021-02-25T14:50:07Z</time>
      </trkpt>
      <trkpt lat="47.0146" lon="5.41475">
        <ele>192.881714</ele>
        <time>2021-02-25T14:50:30Z</time>
      </trkpt>
      <trkpt lat="47.01371" lon="5.4148">
        <ele>192.881714</ele>
        <time>2021-02-25T14:50:46Z</time>
      </trkpt>
      <trkpt lat="47.01354" lon="5.41481">
        <ele>192.881714</ele>
        <time>2021-02-25T14:50:49Z</time>
      </trkpt>
      <trkpt lat="47.01203" lon="5.41489">
        <ele>192.881714</ele>
        <time>2021-02-25T14:51:17Z</time>
      </trkpt>
      <trkpt lat="47.01101" lon="5.41499">
        <ele>191.439575</ele>
        <time>2021-02-25T14:51:35Z</time>
      </trkpt>
      <trkpt lat="47.00963" lon="5.41507">
        <ele>191.920288</ele>
        <time>2021-02-25T14:51:59Z</time>
      </trkpt>
      <trkpt lat="47.00872" lon="5.41512">
        <ele>191.920288</ele>
        <time>2021-02-25T14:52:15Z</time>
      </trkpt>
      <trkpt lat="47.00743" lon="5.41524">
        <ele>191.920288</ele>
        <time>2021-02-25T14:52:37Z</time>
      </trkpt>
      <trkpt lat="47.00596" lon="5.41531">
        <ele>192.401123</ele>
        <time>2021-02-25T14:53:03Z</time>
      </trkpt>
      <trkpt lat="47.00499" lon="5.41541">
        <ele>192.401123</ele>
        <time>2021-02-25T14:53:21Z</time>
      </trkpt>
      <trkpt lat="47.00428" lon="5.41545">
        <ele>192.401123</ele>
        <time>2021-02-25T14:53:37Z</time>
      </trkpt>
      <trkpt lat="47.00348" lon="5.41551">
        <ele>191.920288</ele>
        <time>2021-02-25T14:53:52Z</time>
      </trkpt>
      <trkpt lat="47.00212" lon="5.4156">
        <ele>192.401123</ele>
        <time>2021-02-25T14:54:16Z</time>
      </trkpt>
      <trkpt lat="47.00053" lon="5.4157">
        <ele>191.920288</ele>
        <time>2021-02-25T14:54:44Z</time>
      </trkpt>
      <trkpt lat="46.99914" lon="5.4158">
        <ele>191.920288</ele>
        <time>2021-02-25T14:55:07Z</time>
      </trkpt>
      <trkpt lat="46.99865" lon="5.41582">
        <ele>191.920288</ele>
        <time>2021-02-25T14:55:15Z</time>
      </trkpt>
      <trkpt lat="46.99842" lon="5.41578">
        <ele>192.401123</ele>
        <time>2021-02-25T14:55:19Z</time>
      </trkpt>
      <trkpt lat="46.9982" lon="5.41584">
        <ele>191.920288</ele>
        <time>2021-02-25T14:55:23Z</time>
      </trkpt>
      <trkpt lat="46.99802" lon="5.41586">
        <ele>191.920288</ele>
        <time>2021-02-25T14:55:26Z</time>
      </trkpt>
      <trkpt lat="46.99715" lon="5.41593">
        <ele>191.920288</ele>
        <time>2021-02-25T14:55:41Z</time>
      </trkpt>
      <trkpt lat="46.99544" lon="5.41602">
        <ele>191.920288</ele>
        <time>2021-02-25T14:56:10Z</time>
      </trkpt>
      <trkpt lat="46.99413" lon="5.4161">
        <ele>191.439575</ele>
        <time>2021-02-25T14:56:32Z</time>
      </trkpt>
      <trkpt lat="46.99246" lon="5.41622">
        <ele>190.958984</ele>
        <time>2021-02-25T14:57:00Z</time>
      </trkpt>
      <trkpt lat="46.99147" lon="5.41629">
        <ele>190.958984</ele>
        <time>2021-02-25T14:57:17Z</time>
      </trkpt>
      <trkpt lat="46.99037" lon="5.41635">
        <ele>190.958984</ele>
        <time>2021-02-25T14:57:36Z</time>
      </trkpt>
      <trkpt lat="46.98887" lon="5.41645">
        <ele>190.478394</ele>
        <time>2021-02-25T14:58:02Z</time>
      </trkpt>
      <trkpt lat="46.98736" lon="5.41655">
        <ele>190.478394</ele>
        <time>2021-02-25T14:58:28Z</time>
      </trkpt>
      <trkpt lat="46.98646" lon="5.41661">
        <ele>189.997681</ele>
        <time>2021-02-25T14:58:43Z</time>
      </trkpt>
      <trkpt lat="46.98547" lon="5.41666">
        <ele>189.997681</ele>
        <time>2021-02-25T14:58:59Z</time>
      </trkpt>
      <trkpt lat="46.98421" lon="5.41674">
        <ele>189.516968</ele>
        <time>2021-02-25T14:59:20Z</time>
      </trkpt>
      <trkpt lat="46.9833" lon="5.4168">
        <ele>189.516968</ele>
        <time>2021-02-25T14:59:35Z</time>
      </trkpt>
      <trkpt lat="46.98259" lon="5.41684">
        <ele>189.516968</ele>
        <time>2021-02-25T14:59:47Z</time>
      </trkpt>
      <trkpt lat="46.9817" lon="5.41691">
        <ele>189.516968</ele>
        <time>2021-02-25T15:00:02Z</time>
      </trkpt>
      <trkpt lat="46.98059" lon="5.41698">
        <ele>189.036377</ele>
        <time>2021-02-25T15:00:20Z</time>
      </trkpt>
      <trkpt lat="46.97937" lon="5.41706">
        <ele>189.997681</ele>
        <time>2021-02-25T15:00:41Z</time>
      </trkpt>
      <trkpt lat="46.97847" lon="5.41704">
        <ele>190.478394</ele>
        <time>2021-02-25T15:00:58Z</time>
      </trkpt>
      <trkpt lat="46.97815" lon="5.41709">
        <ele>189.516968</ele>
        <time>2021-02-25T15:01:05Z</time>
      </trkpt>
      <trkpt lat="46.97802" lon="5.41709">
        <ele>189.997681</ele>
        <time>2021-02-25T15:01:08Z</time>
      </trkpt>
      <trkpt lat="46.97715" lon="5.41717">
        <ele>189.997681</ele>
        <time>2021-02-25T15:01:25Z</time>
      </trkpt>
      <trkpt lat="46.97571" lon="5.41727">
        <ele>189.516968</ele>
        <time>2021-02-25T15:01:50Z</time>
      </trkpt>
      <trkpt lat="46.97553" lon="5.41728">
        <ele>189.036377</ele>
        <time>2021-02-25T15:01:53Z</time>
      </trkpt>
      <trkpt lat="46.97473" lon="5.41732">
        <ele>189.036377</ele>
        <time>2021-02-25T15:02:07Z</time>
      </trkpt>
      <trkpt lat="46.97389" lon="5.41739">
        <ele>189.036377</ele>
        <time>2021-02-25T15:02:22Z</time>
      </trkpt>
      <trkpt lat="46.97295" lon="5.41745">
        <ele>189.036377</ele>
        <time>2021-02-25T15:02:39Z</time>
      </trkpt>
      <trkpt lat="46.97211" lon="5.4175">
        <ele>189.036377</ele>
        <time>2021-02-25T15:02:54Z</time>
      </trkpt>
      <trkpt lat="46.97086" lon="5.41739">
        <ele>189.036377</ele>
        <time>2021-02-25T15:03:15Z</time>
      </trkpt>
      <trkpt lat="46.96981" lon="5.4171">
        <ele>189.036377</ele>
        <time>2021-02-25T15:03:33Z</time>
      </trkpt>
      <trkpt lat="46.9691" lon="5.41686">
        <ele>189.036377</ele>
        <time>2021-02-25T15:03:47Z</time>
      </trkpt>
      <trkpt lat="46.96883" lon="5.41689">
        <ele>188.555786</ele>
        <time>2021-02-25T15:03:52Z</time>
      </trkpt>
      <trkpt lat="46.96861" lon="5.41684">
        <ele>189.036377</ele>
        <time>2021-02-25T15:03:56Z</time>
      </trkpt>
      <trkpt lat="46.96847" lon="5.41679">
        <ele>189.516968</ele>
        <time>2021-02-25T15:03:59Z</time>
      </trkpt>
      <trkpt lat="46.96823" lon="5.41685">
        <ele>189.036377</ele>
        <time>2021-02-25T15:04:04Z</time>
      </trkpt>
      <trkpt lat="46.96813" lon="5.41692">
        <ele>189.036377</ele>
        <time>2021-02-25T15:04:06Z</time>
      </trkpt>
      <trkpt lat="46.96779" lon="5.41704">
        <ele>188.555786</ele>
        <time>2021-02-25T15:04:12Z</time>
      </trkpt>
      <trkpt lat="46.96737" lon="5.41735">
        <ele>187.59436</ele>
        <time>2021-02-25T15:04:20Z</time>
      </trkpt>
      <trkpt lat="46.96696" lon="5.41722">
        <ele>187.59436</ele>
        <time>2021-02-25T15:04:28Z</time>
      </trkpt>
      <trkpt lat="46.96691" lon="5.41707">
        <ele>187.59436</ele>
        <time>2021-02-25T15:04:30Z</time>
      </trkpt>
      <trkpt lat="46.96684" lon="5.41667">
        <ele>187.59436</ele>
        <time>2021-02-25T15:04:35Z</time>
      </trkpt>
      <trkpt lat="46.96682" lon="5.41643">
        <ele>187.59436</ele>
        <time>2021-02-25T15:04:38Z</time>
      </trkpt>
      <trkpt lat="46.96685" lon="5.41612">
        <ele>187.11377</ele>
        <time>2021-02-25T15:04:42Z</time>
      </trkpt>
      <trkpt lat="46.96694" lon="5.41592">
        <ele>187.11377</ele>
        <time>2021-02-25T15:04:45Z</time>
      </trkpt>
      <trkpt lat="46.96693" lon="5.41565">
        <ele>188.075073</ele>
        <time>2021-02-25T15:04:49Z</time>
      </trkpt>
      <trkpt lat="46.96683" lon="5.41549">
        <ele>187.59436</ele>
        <time>2021-02-25T15:04:52Z</time>
      </trkpt>
      <trkpt lat="46.96681" lon="5.41513">
        <ele>187.59436</ele>
        <time>2021-02-25T15:04:57Z</time>
      </trkpt>
      <trkpt lat="46.9672" lon="5.41349">
        <ele>186.633179</ele>
        <time>2021-02-25T15:05:17Z</time>
      </trkpt>
      <trkpt lat="46.9674" lon="5.4128">
        <ele>186.633179</ele>
        <time>2021-02-25T15:05:25Z</time>
      </trkpt>
      <trkpt lat="46.9676" lon="5.41156">
        <ele>186.152466</ele>
        <time>2021-02-25T15:05:39Z</time>
      </trkpt>
      <trkpt lat="46.96746" lon="5.40985">
        <ele>186.633179</ele>
        <time>2021-02-25T15:05:59Z</time>
      </trkpt>
      <trkpt lat="46.96746" lon="5.40977">
        <ele>186.633179</ele>
        <time>2021-02-25T15:06:00Z</time>
      </trkpt>
      <trkpt lat="46.96753" lon="5.40937">
        <ele>186.633179</ele>
        <time>2021-02-25T15:06:05Z</time>
      </trkpt>
      <trkpt lat="46.9678" lon="5.40815">
        <ele>187.11377</ele>
        <time>2021-02-25T15:06:21Z</time>
      </trkpt>
      <trkpt lat="46.96808" lon="5.40694">
        <ele>187.11377</ele>
        <time>2021-02-25T15:06:37Z</time>
      </trkpt>
      <trkpt lat="46.96838" lon="5.40595">
        <ele>186.633179</ele>
        <time>2021-02-25T15:06:50Z</time>
      </trkpt>
      <trkpt lat="46.9688" lon="5.40585">
        <ele>186.633179</ele>
        <time>2021-02-25T15:06:58Z</time>
      </trkpt>
      <trkpt lat="46.96891" lon="5.40586">
        <ele>187.11377</ele>
        <time>2021-02-25T15:07:00Z</time>
      </trkpt>
      <trkpt lat="46.96922" lon="5.40608">
        <ele>186.152466</ele>
        <time>2021-02-25T15:07:06Z</time>
      </trkpt>
      <trkpt lat="46.96931" lon="5.4062">
        <ele>186.152466</ele>
        <time>2021-02-25T15:07:08Z</time>
      </trkpt>
      <trkpt lat="46.96964" lon="5.40644">
        <ele>186.152466</ele>
        <time>2021-02-25T15:07:14Z</time>
      </trkpt>
      <trkpt lat="46.97082" lon="5.40642">
        <ele>187.11377</ele>
        <time>2021-02-25T15:07:34Z</time>
      </trkpt>
      <trkpt lat="46.97204" lon="5.40646">
        <ele>186.152466</ele>
        <time>2021-02-25T15:07:53Z</time>
      </trkpt>
      <trkpt lat="46.97353" lon="5.40675">
        <ele>186.152466</ele>
        <time>2021-02-25T15:08:16Z</time>
      </trkpt>
      <trkpt lat="46.97528" lon="5.4071">
        <ele>186.633179</ele>
        <time>2021-02-25T15:08:43Z</time>
      </trkpt>
      <trkpt lat="46.97659" lon="5.40735">
        <ele>187.11377</ele>
        <time>2021-02-25T15:09:03Z</time>
      </trkpt>
      <trkpt lat="46.97759" lon="5.40753">
        <ele>188.075073</ele>
        <time>2021-02-25T15:09:20Z</time>
      </trkpt>
      <trkpt lat="46.97825" lon="5.40764">
        <ele>188.555786</ele>
        <time>2021-02-25T15:09:31Z</time>
      </trkpt>
      <trkpt lat="46.97849" lon="5.4076">
        <ele>187.11377</ele>
        <time>2021-02-25T15:09:35Z</time>
      </trkpt>
      <trkpt lat="46.97948" lon="5.40719">
        <ele>186.633179</ele>
        <time>2021-02-25T15:09:51Z</time>
      </trkpt>
      <trkpt lat="46.98051" lon="5.40751">
        <ele>186.633179</ele>
        <time>2021-02-25T15:10:07Z</time>
      </trkpt>
      <trkpt lat="46.9819" lon="5.40789">
        <ele>186.633179</ele>
        <time>2021-02-25T15:10:28Z</time>
      </trkpt>
      <trkpt lat="46.98289" lon="5.40826">
        <ele>187.59436</ele>
        <time>2021-02-25T15:10:44Z</time>
      </trkpt>
      <trkpt lat="46.98331" lon="5.40802">
        <ele>187.11377</ele>
        <time>2021-02-25T15:10:51Z</time>
      </trkpt>
      <trkpt lat="46.98409" lon="5.4069">
        <ele>186.633179</ele>
        <time>2021-02-25T15:11:08Z</time>
      </trkpt>
      <trkpt lat="46.98435" lon="5.40646">
        <ele>186.152466</ele>
        <time>2021-02-25T15:11:14Z</time>
      </trkpt>
      <trkpt lat="46.98464" lon="5.40621">
        <ele>186.633179</ele>
        <time>2021-02-25T15:11:19Z</time>
      </trkpt>
      <trkpt lat="46.986" lon="5.40582">
        <ele>188.075073</ele>
        <time>2021-02-25T15:11:40Z</time>
      </trkpt>
      <trkpt lat="46.98772" lon="5.40568">
        <ele>188.075073</ele>
        <time>2021-02-25T15:12:05Z</time>
      </trkpt>
      <trkpt lat="46.98892" lon="5.40564">
        <ele>187.59436</ele>
        <time>2021-02-25T15:12:22Z</time>
      </trkpt>
      <trkpt lat="46.98997" lon="5.40629">
        <ele>188.075073</ele>
        <time>2021-02-25T15:12:38Z</time>
      </trkpt>
      <trkpt lat="46.99169" lon="5.40697">
        <ele>188.075073</ele>
        <time>2021-02-25T15:13:03Z</time>
      </trkpt>
      <trkpt lat="46.99263" lon="5.40674">
        <ele>187.59436</ele>
        <time>2021-02-25T15:13:16Z</time>
      </trkpt>
      <trkpt lat="46.99378" lon="5.40661">
        <ele>188.555786</ele>
        <time>2021-02-25T15:13:32Z</time>
      </trkpt>
      <trkpt lat="46.99476" lon="5.40612">
        <ele>188.555786</ele>
        <time>2021-02-25T15:13:47Z</time>
      </trkpt>
      <trkpt lat="46.99609" lon="5.40522">
        <ele>188.555786</ele>
        <time>2021-02-25T15:14:08Z</time>
      </trkpt>
      <trkpt lat="46.99678" lon="5.40413">
        <ele>188.555786</ele>
        <time>2021-02-25T15:14:23Z</time>
      </trkpt>
      <trkpt lat="46.9976" lon="5.40319">
        <ele>188.075073</ele>
        <time>2021-02-25T15:14:39Z</time>
      </trkpt>
      <trkpt lat="46.99848" lon="5.40287">
        <ele>188.555786</ele>
        <time>2021-02-25T15:14:53Z</time>
      </trkpt>
      <trkpt lat="46.99928" lon="5.40208">
        <ele>188.075073</ele>
        <time>2021-02-25T15:15:08Z</time>
      </trkpt>
      <trkpt lat="47.00019" lon="5.40157">
        <ele>188.555786</ele>
        <time>2021-02-25T15:15:23Z</time>
      </trkpt>
      <trkpt lat="47.00045" lon="5.40101">
        <ele>188.555786</ele>
        <time>2021-02-25T15:15:31Z</time>
      </trkpt>
      <trkpt lat="47.00035" lon="5.39996">
        <ele>188.075073</ele>
        <time>2021-02-25T15:15:43Z</time>
      </trkpt>
      <trkpt lat="46.99952" lon="5.39819">
        <ele>187.59436</ele>
        <time>2021-02-25T15:16:07Z</time>
      </trkpt>
      <trkpt lat="46.99946" lon="5.39784">
        <ele>187.59436</ele>
        <time>2021-02-25T15:16:11Z</time>
      </trkpt>
      <trkpt lat="46.99961" lon="5.39602">
        <ele>187.59436</ele>
        <time>2021-02-25T15:16:32Z</time>
      </trkpt>
      <trkpt lat="46.9998" lon="5.39344">
        <ele>187.11377</ele>
        <time>2021-02-25T15:17:01Z</time>
      </trkpt>
      <trkpt lat="47.00006" lon="5.392">
        <ele>188.075073</ele>
        <time>2021-02-25T15:17:18Z</time>
      </trkpt>
      <trkpt lat="47.00025" lon="5.39156">
        <ele>188.075073</ele>
        <time>2021-02-25T15:17:24Z</time>
      </trkpt>
      <trkpt lat="47.00033" lon="5.39122">
        <ele>188.075073</ele>
        <time>2021-02-25T15:17:28Z</time>
      </trkpt>
      <trkpt lat="47.00043" lon="5.39024">
        <ele>187.59436</ele>
        <time>2021-02-25T15:17:39Z</time>
      </trkpt>
      <trkpt lat="47.00079" lon="5.38973">
        <ele>189.516968</ele>
        <time>2021-02-25T15:17:48Z</time>
      </trkpt>
      <trkpt lat="47.0011" lon="5.38972">
        <ele>190.478394</ele>
        <time>2021-02-25T15:17:54Z</time>
      </trkpt>
      <trkpt lat="47.00148" lon="5.38984">
        <ele>190.958984</ele>
        <time>2021-02-25T15:18:01Z</time>
      </trkpt>
      <trkpt lat="47.00207" lon="5.39004">
        <ele>190.958984</ele>
        <time>2021-02-25T15:18:12Z</time>
      </trkpt>
      <trkpt lat="47.00284" lon="5.39032">
        <ele>190.958984</ele>
        <time>2021-02-25T15:18:25Z</time>
      </trkpt>
      <trkpt lat="47.00407" lon="5.39069">
        <ele>188.555786</ele>
        <time>2021-02-25T15:18:43Z</time>
      </trkpt>
      <trkpt lat="47.00544" lon="5.39107">
        <ele>188.075073</ele>
        <time>2021-02-25T15:19:05Z</time>
      </trkpt>
      <trkpt lat="47.00555" lon="5.39106">
        <ele>188.555786</ele>
        <time>2021-02-25T15:19:07Z</time>
      </trkpt>
      <trkpt lat="47.00577" lon="5.39095">
        <ele>188.555786</ele>
        <time>2021-02-25T15:19:11Z</time>
      </trkpt>
      <trkpt lat="47.00692" lon="5.38994">
        <ele>189.036377</ele>
        <time>2021-02-25T15:19:34Z</time>
      </trkpt>
      <trkpt lat="47.00777" lon="5.38878">
        <ele>188.075073</ele>
        <time>2021-02-25T15:19:53Z</time>
      </trkpt>
      <trkpt lat="47.00831" lon="5.38716">
        <ele>188.075073</ele>
        <time>2021-02-25T15:20:13Z</time>
      </trkpt>
      <trkpt lat="47.00889" lon="5.38637">
        <ele>188.075073</ele>
        <time>2021-02-25T15:20:26Z</time>
      </trkpt>
      <trkpt lat="47.00928" lon="5.38621">
        <ele>189.036377</ele>
        <time>2021-02-25T15:20:33Z</time>
      </trkpt>
      <trkpt lat="47.00939" lon="5.38644">
        <ele>189.516968</ele>
        <time>2021-02-25T15:20:38Z</time>
      </trkpt>
      <trkpt lat="47.00923" lon="5.38794">
        <ele>189.036377</ele>
        <time>2021-02-25T15:20:56Z</time>
      </trkpt>
      <trkpt lat="47.00946" lon="5.38843">
        <ele>189.036377</ele>
        <time>2021-02-25T15:21:05Z</time>
      </trkpt>
      <trkpt lat="47.00951" lon="5.38841">
        <ele>188.555786</ele>
        <time>2021-02-25T15:21:06Z</time>
      </trkpt>
      <trkpt lat="47.00973" lon="5.38832">
        <ele>188.555786</ele>
        <time>2021-02-25T15:21:10Z</time>
      </trkpt>
      <trkpt lat="47.01009" lon="5.38836">
        <ele>188.555786</ele>
        <time>2021-02-25T15:21:16Z</time>
      </trkpt>
      <trkpt lat="47.01056" lon="5.38879">
        <ele>188.555786</ele>
        <time>2021-02-25T15:21:25Z</time>
      </trkpt>
      <trkpt lat="47.01068" lon="5.38877">
        <ele>188.555786</ele>
        <time>2021-02-25T15:21:29Z</time>
      </trkpt>
      <trkpt lat="47.01106" lon="5.38774">
        <ele>188.075073</ele>
        <time>2021-02-25T15:21:45Z</time>
      </trkpt>
      <trkpt lat="47.0112" lon="5.3874">
        <ele>188.075073</ele>
        <time>2021-02-25T15:21:50Z</time>
      </trkpt>
      <trkpt lat="47.01128" lon="5.38695">
        <ele>187.59436</ele>
        <time>2021-02-25T15:21:56Z</time>
      </trkpt>
      <trkpt lat="47.01147" lon="5.38683">
        <ele>189.036377</ele>
        <time>2021-02-25T15:22:02Z</time>
      </trkpt>
      <trkpt lat="47.01225" lon="5.38755">
        <ele>189.036377</ele>
        <time>2021-02-25T15:22:22Z</time>
      </trkpt>
      <trkpt lat="47.01232" lon="5.38757">
        <ele>189.036377</ele>
        <time>2021-02-25T15:22:32Z</time>
      </trkpt>
      <trkpt lat="47.01232" lon="5.38757">
        <ele>189.036377</ele>
        <time>2021-02-25T15:22:49Z</time>
      </trkpt>
      <trkpt lat="47.01241" lon="5.38749">
        <ele>188.555786</ele>
        <time>2021-02-25T15:22:58Z</time>
      </trkpt>
      <trkpt lat="47.01243" lon="5.38748">
        <ele>188.555786</ele>
        <time>2021-02-25T15:23:22Z</time>
      </trkpt>
      <trkpt lat="47.01242" lon="5.38748">
        <ele>189.036377</ele>
        <time>2021-02-25T15:24:56Z</time>
      </trkpt>
      <trkpt lat="47.01242" lon="5.38747">
        <ele>188.555786</ele>
        <time>2021-02-25T15:25:56Z</time>
      </trkpt>
    </trkseg>
  </trk>
</gpx>